Terminal Aerodrome Forecast
Issued by NWS

Home | Current Version | Previous Version | Text Only | Print | Product List | Glossary On
Versions: 1 2 3 4 5 6 7 8 9 10 11 12 13 14 15 16 17 18 19
000
FTUS41 KPHI 031138
TAFMIV
TAF
KMIV 031138Z 0312/0412 00000KT 3SM BR SCT050 BKN250
     FM031300 35004KT P6SM SCT250
     FM031800 31006KT P6SM SCT045
     FM032300 VRB03KT P6SM SCT045
     FM040400 00000KT 3SM BR SCT045
     FM041000 05004KT 5SM BR SCT045=

USA.gov is the U.S. government's official web portal to all federal, state and local government web resources and services.